Time;durP1;ratioP1;P1;durP2;ratioP2;P2;SDS_P1;SDS_P2;PMS_P1;PMS_P2;Temp;Humidity;BMP_temperature;BMP_pressure;BME280_temperature;BME280_humidity;BME280_pressure;Samples;Min_cycle;Max_cycle;Signal;HPM_P1;HPM_P2
2023/12/21 00:01:03;;;;;;;11.52;4.80;;;9.00;99.90;;;;;;5044213;28;20103;-68
2023/12/21 00:03:29;;;;;;;11.90;5.22;;;9.10;99.90;;;;;;5045869;28;20053;-68
2023/12/21 00:05:54;;;;;;;10.40;3.30;;;9.10;99.90;;;;;;5043402;28;20045;-68
2023/12/21 00:08:20;;;;;;;11.63;3.33;;;9.20;99.90;;;;;;5036056;28;20044;-68
2023/12/21 00:10:45;;;;;;;11.60;5.15;;;9.10;99.90;;;;;;5042915;28;20049;-68
2023/12/21 00:13:11;;;;;;;13.93;5.45;;;9.10;99.90;;;;;;5040593;28;20045;-67
2023/12/21 00:15:37;;;;;;;13.18;5.30;;;9.20;99.90;;;;;;5042117;28;20052;-68
2023/12/21 00:18:02;;;;;;;14.85;6.13;;;9.20;99.90;;;;;;5040099;28;20033;-68
2023/12/21 00:20:28;;;;;;;11.55;3.42;;;9.20;99.90;;;;;;5046335;28;20041;-68
2023/12/21 00:22:54;;;;;;;17.77;6.03;;;9.10;99.90;;;;;;5045181;28;20045;-68
2023/12/21 00:25:20;;;;;;;18.92;6.30;;;9.20;99.90;;;;;;5038184;28;20083;-68
2023/12/21 00:27:45;;;;;;;13.15;6.03;;;9.20;99.90;;;;;;5042184;28;20496;-68
2023/12/21 00:30:11;;;;;;;14.13;3.15;;;9.30;99.90;;;;;;5044880;28;20111;-68
2023/12/21 00:32:37;;;;;;;14.48;5.72;;;9.20;99.90;;;;;;5038933;28;20040;-68
2023/12/21 00:35:03;;;;;;;16.98;5.95;;;9.30;99.90;;;;;;5041437;28;20546;-68
2023/12/21 00:37:30;;;;;;;15.02;5.90;;;9.30;99.90;;;;;;5039861;28;20044;-68
2023/12/21 00:39:56;;;;;;;10.68;3.47;;;9.30;99.90;;;;;;5048462;28;20045;-68
2023/12/21 00:42:23;;;;;;;19.13;5.70;;;9.30;99.90;;;;;;5042956;28;20040;-68
2023/12/21 00:44:49;;;;;;;17.92;6.03;;;9.30;99.90;;;;;;5038429;28;20348;-68
2023/12/21 00:47:15;;;;;;;17.67;5.65;;;9.40;99.90;;;;;;5045366;28;20037;-69
2023/12/21 00:49:40;;;;;;;17.08;5.65;;;9.40;99.90;;;;;;5049681;28;20106;-68
2023/12/21 00:52:06;;;;;;;15.48;5.32;;;9.30;99.90;;;;;;5049078;28;20064;-68
2023/12/21 00:54:31;;;;;;;18.00;6.43;;;9.40;99.90;;;;;;5040245;28;20047;-68
2023/12/21 00:56:57;;;;;;;17.98;3.70;;;9.40;99.90;;;;;;5040768;28;20056;-68
2023/12/21 00:59:23;;;;;;;14.07;5.50;;;9.40;99.90;;;;;;5050734;28;20044;-68
2023/12/21 01:01:48;;;;;;;15.48;5.60;;;9.40;99.90;;;;;;5048825;28;20036;-68
2023/12/21 01:04:14;;;;;;;14.90;6.65;;;9.40;99.90;;;;;;5046662;28;20041;-68
2023/12/21 01:06:42;;;;;;;19.85;6.45;;;9.40;99.90;;;;;;5049948;28;20571;-68
2023/12/21 01:09:08;;;;;;;18.23;6.15;;;9.50;99.90;;;;;;5043637;28;20414;-68
2023/12/21 01:11:34;;;;;;;17.80;6.47;;;9.40;99.90;;;;;;5045024;28;20493;-68
2023/12/21 01:13:59;;;;;;;18.63;6.70;;;9.40;99.90;;;;;;5045623;28;20041;-68
2023/12/21 01:16:25;;;;;;;19.30;7.28;;;9.40;99.90;;;;;;5049644;28;20037;-68
2023/12/21 01:18:50;;;;;;;21.52;7.40;;;9.40;99.90;;;;;;5047041;28;20040;-69
2023/12/21 01:21:16;;;;;;;22.60;7.57;;;9.40;99.90;;;;;;5047740;28;20627;-68
2023/12/21 01:23:42;;;;;;;22.02;7.60;;;9.30;99.90;;;;;;5048268;28;20041;-68
2023/12/21 01:26:07;;;;;;;18.08;6.78;;;9.40;99.90;;;;;;5039114;28;20044;-68
2023/12/21 01:28:33;;;;;;;17.90;7.10;;;9.30;99.90;;;;;;5047502;28;20449;-68
2023/12/21 01:30:59;;;;;;;14.25;4.00;;;9.40;99.90;;;;;;5045122;28;20076;-68
2023/12/21 01:33:24;;;;;;;18.70;6.90;;;9.40;99.90;;;;;;5044983;28;20049;-68
2023/12/21 01:35:50;;;;;;;20.40;6.90;;;9.30;99.90;;;;;;5047839;28;20067;-68
2023/12/21 01:38:15;;;;;;;21.40;7.47;;;9.30;99.90;;;;;;5045281;28;20555;-68
2023/12/21 01:40:44;;;;;;;21.17;6.80;;;9.30;99.90;;;;;;5047721;28;20049;-68
2023/12/21 01:43:10;;;;;;;19.75;6.55;;;9.40;99.90;;;;;;5046371;28;20050;-68
2023/12/21 01:45:36;;;;;;;18.65;6.72;;;9.40;99.90;;;;;;5049470;28;20119;-68
2023/12/21 01:48:02;;;;;;;20.33;6.32;;;9.40;99.90;;;;;;5040905;28;20065;-69
2023/12/21 01:50:28;;;;;;;16.75;6.55;;;9.40;99.90;;;;;;5048531;28;20551;-68
2023/12/21 01:52:56;;;;;;;19.17;6.65;;;9.40;99.90;;;;;;5045097;28;20057;-68
2023/12/21 01:55:23;;;;;;;20.45;6.47;;;9.40;99.90;;;;;;5037320;28;20057;-68
2023/12/21 01:57:49;;;;;;;15.85;6.95;;;9.40;99.90;;;;;;5042059;28;20062;-68
2023/12/21 02:00:16;;;;;;;22.35;6.50;;;9.40;99.90;;;;;;5049008;28;20048;-68
2023/12/21 02:02:42;;;;;;;18.65;6.63;;;9.50;99.90;;;;;;5042667;28;20037;-68
2023/12/21 02:05:07;;;;;;;21.55;6.22;;;9.40;99.90;;;;;;5045974;28;20060;-68
2023/12/21 02:07:33;;;;;;;14.98;5.90;;;9.40;99.90;;;;;;5041905;28;20048;-68
2023/12/21 02:09:59;;;;;;;16.90;5.85;;;9.40;99.90;;;;;;5041205;28;20049;-68
2023/12/21 02:12:24;;;;;;;18.27;5.82;;;9.50;99.90;;;;;;5043945;28;20442;-68
2023/12/21 02:14:50;;;;;;;16.45;5.82;;;9.50;99.90;;;;;;5047589;28;20091;-68
2023/12/21 02:17:19;;;;;;;14.65;5.55;;;9.50;99.90;;;;;;5044777;28;20041;-69
2023/12/21 02:19:46;;;;;;;18.80;6.80;;;9.50;99.90;;;;;;5045681;28;20037;-69
2023/12/21 02:22:15;;;;;;;16.50;5.90;;;9.40;99.90;;;;;;5048359;28;20096;-69
2023/12/21 02:24:40;;;;;;;18.45;6.25;;;9.50;99.90;;;;;;5043441;28;20098;-68
2023/12/21 02:27:06;;;;;;;20.05;6.68;;;9.50;99.90;;;;;;5042415;28;20516;-68
2023/12/21 02:29:32;;;;;;;20.25;6.30;;;9.50;99.90;;;;;;5045975;28;20382;-68
2023/12/21 02:31:57;;;;;;;17.88;5.88;;;9.40;99.90;;;;;;5042617;28;20051;-68
2023/12/21 02:34:23;;;;;;;21.30;6.53;;;9.50;99.90;;;;;;5045348;28;20042;-68
2023/12/21 02:36:48;;;;;;;16.38;3.60;;;9.50;99.90;;;;;;5046305;28;20601;-68
2023/12/21 02:39:14;;;;;;;19.63;6.28;;;9.50;99.90;;;;;;5045893;28;20041;-68
2023/12/21 02:41:40;;;;;;;16.27;5.82;;;9.50;99.90;;;;;;5043512;28;20143;-68
2023/12/21 02:44:06;;;;;;;20.77;5.88;;;9.40;99.90;;;;;;5039595;28;20049;-68
2023/12/21 02:46:32;;;;;;;12.23;3.13;;;9.40;99.90;;;;;;5037912;28;20033;-68
2023/12/21 02:48:57;;;;;;;15.43;5.55;;;9.40;99.90;;;;;;5045876;28;20057;-68
2023/12/21 02:51:23;;;;;;;18.55;5.80;;;9.40;99.90;;;;;;5047987;28;20090;-68
2023/12/21 02:53:49;;;;;;;16.80;4.05;;;9.40;99.90;;;;;;5047848;28;20045;-68
2023/12/21 02:56:15;;;;;;;18.05;5.90;;;9.40;99.90;;;;;;5051031;28;20044;-68
2023/12/21 02:58:41;;;;;;;18.77;4.35;;;9.40;99.90;;;;;;5041624;28;21232;-68
2023/12/21 03:01:06;;;;;;;18.98;6.30;;;9.40;99.90;;;;;;5047285;28;20045;-68
2023/12/21 03:03:32;;;;;;;19.60;6.88;;;9.30;99.90;;;;;;5049511;28;20092;-68
2023/12/21 03:05:58;;;;;;;19.77;6.68;;;9.30;99.90;;;;;;5052480;28;20044;-68
2023/12/21 03:08:23;;;;;;;23.40;7.18;;;9.30;99.90;;;;;;5056728;28;20043;-68
2023/12/21 03:10:49;;;;;;;18.42;7.03;;;9.30;99.90;;;;;;5050148;28;20103;-68
2023/12/21 03:13:15;;;;;;;13.63;3.95;;;9.40;99.90;;;;;;5046875;28;20380;-68
2023/12/21 03:15:41;;;;;;;18.50;7.13;;;9.30;99.90;;;;;;5055187;28;20040;-68
2023/12/21 03:18:06;;;;;;;22.13;8.02;;;9.30;99.90;;;;;;5050477;28;20071;-68
2023/12/21 03:20:32;;;;;;;11.52;4.72;;;9.30;99.90;;;;;;5040069;28;20048;-68
2023/12/21 03:22:57;;;;;;;12.00;4.50;;;9.30;99.90;;;;;;5047278;28;20053;-68
2023/12/21 03:25:23;;;;;;;18.98;7.72;;;9.30;99.90;;;;;;5044840;28;20085;-68
2023/12/21 03:27:49;;;;;;;18.30;8.65;;;9.30;99.90;;;;;;5047650;28;20183;-68
2023/12/21 03:30:14;;;;;;;10.32;4.35;;;9.30;99.90;;;;;;5047479;28;20051;-68
2023/12/21 03:32:42;;;;;;;10.50;4.10;;;9.20;99.90;;;;;;5050184;28;20053;-68
2023/12/21 03:35:08;;;;;;;17.17;8.73;;;9.20;99.90;;;;;;5046457;28;20047;-68
2023/12/21 03:37:34;;;;;;;17.02;9.05;;;9.20;99.90;;;;;;5041912;28;20037;-68
2023/12/21 03:40:00;;;;;;;16.70;9.32;;;9.30;99.90;;;;;;5044991;28;20048;-68
2023/12/21 03:42:25;;;;;;;14.13;5.57;;;9.20;99.90;;;;;;5045024;28;20049;-69
2023/12/21 03:44:51;;;;;;;16.10;5.47;;;9.20;99.90;;;;;;5043545;28;20488;-68
2023/12/21 03:47:16;;;;;;;17.55;9.35;;;9.20;99.90;;;;;;5044264;28;20656;-68
2023/12/21 03:49:42;;;;;;;14.80;9.00;;;9.20;99.90;;;;;;5047718;28;20083;-68
2023/12/21 03:52:08;;;;;;;9.18;4.20;;;9.20;99.90;;;;;;5043327;28;20123;-68
2023/12/21 03:54:34;;;;;;;8.85;4.72;;;9.20;99.90;;;;;;5045471;28;20124;-68
2023/12/21 03:56:59;;;;;;;10.43;4.88;;;9.20;99.90;;;;;;5041671;28;20044;-68
2023/12/21 03:59:25;;;;;;;15.18;10.93;;;9.20;99.90;;;;;;5045253;28;20033;-68
2023/12/21 04:01:54;;;;;;;18.75;12.25;;;9.20;99.90;;;;;;5045533;28;20049;-68
2023/12/21 04:04:19;;;;;;;16.95;11.60;;;9.20;99.90;;;;;;5036557;28;20085;-68
2023/12/21 04:06:45;;;;;;;19.08;11.27;;;9.20;99.90;;;;;;5045530;28;20494;-68
2023/12/21 04:09:11;;;;;;;16.17;11.73;;;9.20;99.90;;;;;;5039475;28;20047;-68
2023/12/21 04:11:37;;;;;;;16.30;11.65;;;9.20;99.90;;;;;;5047705;28;20222;-66
2023/12/21 04:14:02;;;;;;;20.42;12.68;;;9.20;99.90;;;;;;5040081;28;20120;-66
2023/12/21 04:16:28;;;;;;;18.67;12.38;;;9.20;99.90;;;;;;5040617;28;20032;-68
2023/12/21 04:18:54;;;;;;;18.38;12.80;;;9.20;99.90;;;;;;5043015;28;20138;-68
2023/12/21 04:21:19;;;;;;;18.55;11.75;;;9.20;99.90;;;;;;5039845;28;20674;-69
2023/12/21 04:23:46;;;;;;;15.95;11.50;;;9.30;99.90;;;;;;5034862;28;20551;-68
2023/12/21 04:26:22;;;;;;;15.15;5.82;;;9.20;99.90;;;;;;5046461;28;20064;-68
2023/12/21 04:28:49;;;;;;;20.48;12.13;;;9.20;99.90;;;;;;5047053;28;20048;-68
2023/12/21 04:31:19;;;;;;;12.15;5.30;;;9.20;99.90;;;;;;5044115;28;20047;-68
2023/12/21 04:33:46;;;;;;;8.75;5.13;;;9.20;99.90;;;;;;5045012;28;20037;-68
2023/12/21 04:36:12;;;;;;;19.65;10.95;;;9.10;99.90;;;;;;5045474;28;20115;-68
2023/12/21 04:38:38;;;;;;;15.88;9.70;;;9.20;99.90;;;;;;5038356;28;20156;-68
2023/12/21 04:41:04;;;;;;;17.77;10.95;;;9.20;99.90;;;;;;5045096;28;20103;-68
2023/12/21 04:43:29;;;;;;;17.20;9.82;;;9.20;99.90;;;;;;5046249;28;20096;-68
2023/12/21 04:45:55;;;;;;;16.85;9.85;;;9.20;99.90;;;;;;5040351;28;20056;-68
2023/12/21 04:48:20;;;;;;;17.15;10.52;;;9.20;99.90;;;;;;5045499;28;20080;-68
2023/12/21 04:50:46;;;;;;;13.68;8.55;;;9.30;99.90;;;;;;5042053;28;20563;-68
2023/12/21 04:53:12;;;;;;;15.45;9.05;;;9.30;99.90;;;;;;5040090;28;20045;-68
2023/12/21 04:55:37;;;;;;;13.00;9.70;;;9.30;99.90;;;;;;5042504;28;20124;-68
2023/12/21 04:58:03;;;;;;;16.42;9.82;;;9.30;99.90;;;;;;5046374;28;20045;-68
2023/12/21 05:00:29;;;;;;;17.17;10.38;;;9.30;99.90;;;;;;5041584;28;20053;-68
2023/12/21 05:02:55;;;;;;;16.80;10.18;;;9.30;99.90;;;;;;5047060;28;20052;-68
2023/12/21 05:05:21;;;;;;;12.65;5.70;;;9.30;99.90;;;;;;5044479;28;20118;-68
2023/12/21 05:07:47;;;;;;;15.80;7.15;;;9.30;99.90;;;;;;5041355;28;20045;-68
2023/12/21 05:10:14;;;;;;;12.07;5.93;;;9.30;99.90;;;;;;5043455;28;20076;-68
2023/12/21 05:12:40;;;;;;;17.95;10.32;;;9.30;99.90;;;;;;5048180;28;20441;-68
2023/12/21 05:15:07;;;;;;;16.63;9.98;;;9.30;99.90;;;;;;5046427;28;20041;-68
2023/12/21 05:17:34;;;;;;;13.60;9.48;;;9.30;99.90;;;;;;5043242;28;20136;-68
2023/12/21 05:20:00;;;;;;;;;;;9.30;99.90;;;;;;5044801;28;20045;-68
2023/12/21 05:22:26;;;;;;;13.35;8.30;;;9.30;99.90;;;;;;5043616;28;19929;-67
2023/12/21 05:24:51;;;;;;;13.95;8.77;;;9.30;99.90;;;;;;5041805;28;20362;-66
2023/12/21 05:27:17;;;;;;;14.95;8.80;;;9.20;99.90;;;;;;5048181;28;20558;-66
2023/12/21 05:29:43;;;;;;;15.63;8.55;;;9.30;99.90;;;;;;5062566;28;20555;-66
2023/12/21 05:32:09;;;;;;;18.88;8.73;;;9.30;99.90;;;;;;5049653;28;20480;-66
2023/12/21 05:34:34;;;;;;;9.30;4.20;;;9.30;99.90;;;;;;5045553;28;20043;-66
2023/12/21 05:37:00;;;;;;;15.32;9.20;;;9.30;99.90;;;;;;5039276;28;20447;-66
2023/12/21 05:39:27;;;;;;;9.85;4.47;;;9.20;99.90;;;;;;5047592;28;20045;-66
2023/12/21 05:41:53;;;;;;;8.30;4.78;;;9.30;99.90;;;;;;5048682;28;20056;-70
2023/12/21 05:44:19;;;;;;;14.38;7.20;;;9.20;99.90;;;;;;5044529;28;20579;-68
2023/12/21 05:46:44;;;;;;;9.52;4.63;;;9.20;99.90;;;;;;5050027;28;20131;-68
2023/12/21 05:49:10;;;;;;;9.40;4.25;;;9.30;99.90;;;;;;5043942;28;20029;-68
2023/12/21 05:51:36;;;;;;;13.77;7.20;;;9.20;99.90;;;;;;5045079;28;20048;-67
2023/12/21 05:54:03;;;;;;;12.82;6.70;;;9.30;99.90;;;;;;5043244;28;20048;-68
2023/12/21 05:56:35;;;;;;;13.30;4.57;;;9.30;99.90;;;;;;5042055;28;20040;-68
2023/12/21 05:59:01;;;;;;;9.57;4.03;;;9.30;99.90;;;;;;5037314;28;20821;-68
2023/12/21 06:01:26;;;;;;;17.30;7.30;;;9.20;99.90;;;;;;5048354;28;20025;-68
2023/12/21 06:03:52;;;;;;;10.85;4.65;;;9.30;99.90;;;;;;5048077;28;20052;-68
2023/12/21 06:06:17;;;;;;;12.10;4.00;;;9.30;99.90;;;;;;5046626;28;20466;-68
2023/12/21 06:08:43;;;;;;;13.30;6.25;;;9.20;99.90;;;;;;5047765;28;20045;-68
2023/12/21 06:11:09;;;;;;;8.85;3.65;;;9.30;99.90;;;;;;5041362;28;20112;-68
2023/12/21 06:13:35;;;;;;;9.27;3.30;;;9.30;99.90;;;;;;5047874;28;20064;-69
2023/12/21 06:16:00;;;;;;;11.63;3.75;;;9.20;99.90;;;;;;5047187;28;20048;-68
2023/12/21 06:18:26;;;;;;;11.85;3.45;;;9.30;99.90;;;;;;5047062;28;20403;-68
2023/12/21 06:20:52;;;;;;;9.43;4.28;;;9.20;99.90;;;;;;5045885;28;20722;-68
2023/12/21 06:23:18;;;;;;;12.15;4.05;;;9.30;99.90;;;;;;5042567;28;20694;-69
2023/12/21 06:25:44;;;;;;;13.93;3.60;;;9.30;99.90;;;;;;5041144;28;20568;-68
2023/12/21 06:28:09;;;;;;;10.73;3.40;;;9.30;99.90;;;;;;5038206;28;20047;-68
2023/12/21 06:30:35;;;;;;;7.40;2.75;;;9.30;99.90;;;;;;5037279;28;20135;-68
2023/12/21 06:33:01;;;;;;;9.73;3.13;;;9.30;99.90;;;;;;5041068;28;20441;-68
2023/12/21 06:35:27;;;;;;;6.55;2.33;;;9.30;99.90;;;;;;5047383;28;20480;-68
2023/12/21 06:37:52;;;;;;;16.00;5.00;;;9.30;99.90;;;;;;5044197;28;20041;-70
2023/12/21 06:40:18;;;;;;;7.72;2.63;;;9.40;99.90;;;;;;5042383;28;20084;-68
2023/12/21 06:42:44;;;;;;;6.53;2.33;;;9.40;99.90;;;;;;5035623;28;20124;-68
2023/12/21 06:45:11;;;;;;;11.75;2.50;;;9.40;99.90;;;;;;5040202;28;20041;-68
2023/12/21 06:47:37;;;;;;;11.80;4.05;;;9.40;99.90;;;;;;5043299;28;20128;-67
2023/12/21 06:50:04;;;;;;;12.48;3.53;;;9.50;99.90;;;;;;5077997;28;20939;-68
2023/12/21 06:52:30;;;;;;;10.05;2.88;;;9.50;99.90;;;;;;5042467;28;20041;-67
2023/12/21 06:54:56;;;;;;;12.40;4.00;;;9.50;99.90;;;;;;5040412;28;20055;-68
2023/12/21 06:57:23;;;;;;;12.37;3.80;;;9.60;99.90;;;;;;5036930;28;20124;-68
2023/12/21 06:59:49;;;;;;;12.98;4.20;;;9.60;99.90;;;;;;5045738;28;20302;-68
2023/12/21 07:02:14;;;;;;;9.38;3.22;;;9.60;99.90;;;;;;5039830;28;20045;-67
2023/12/21 07:04:40;;;;;;;7.72;2.75;;;9.60;99.90;;;;;;5032474;28;20091;-68
2023/12/21 07:07:06;;;;;;;9.02;2.13;;;9.60;99.90;;;;;;5046157;28;20049;-68
2023/12/21 07:09:32;;;;;;;13.13;4.03;;;9.60;99.90;;;;;;5037549;28;20065;-68
2023/12/21 07:11:59;;;;;;;15.23;3.90;;;9.60;99.90;;;;;;5040897;28;20580;-68
2023/12/21 07:14:25;;;;;;;10.32;2.42;;;9.60;99.90;;;;;;5043546;28;20110;-68
2023/12/21 07:16:51;;;;;;;6.80;2.47;;;9.60;99.90;;;;;;5072773;28;20060;-68
2023/12/21 07:19:17;;;;;;;11.90;3.70;;;9.50;99.90;;;;;;5031829;28;20400;-68
2023/12/21 07:21:43;;;;;;;11.02;3.70;;;9.50;99.90;;;;;;5037238;28;20128;-68
2023/12/21 07:24:09;;;;;;;13.60;4.13;;;9.50;99.90;;;;;;5058672;28;20048;-68
2023/12/21 07:26:35;;;;;;;13.10;4.47;;;9.50;99.90;;;;;;5044203;28;20045;-68
2023/12/21 07:29:01;;;;;;;9.52;4.60;;;9.50;99.90;;;;;;5038281;28;20057;-67
2023/12/21 07:31:26;;;;;;;11.20;5.10;;;9.50;99.90;;;;;;5037454;28;20033;-67
2023/12/21 07:33:52;;;;;;;8.32;2.78;;;9.40;99.90;;;;;;5043084;28;20111;-67
2023/12/21 07:36:18;;;;;;;7.18;3.13;;;9.40;99.90;;;;;;5039971;28;20042;-67
2023/12/21 07:38:44;;;;;;;10.00;4.32;;;9.40;99.90;;;;;;5040473;28;20135;-67
2023/12/21 07:41:10;;;;;;;9.65;3.60;;;9.40;99.90;;;;;;5042679;28;20048;-67
2023/12/21 07:43:37;;;;;;;7.28;2.03;;;9.50;99.90;;;;;;5044547;28;20041;-67
2023/12/21 07:46:03;;;;;;;5.50;1.97;;;9.40;99.90;;;;;;5041552;28;20049;-67
2023/12/21 07:48:29;;;;;;;9.10;3.75;;;9.40;99.90;;;;;;5035679;28;21331;-67
2023/12/21 07:50:54;;;;;;;8.77;3.17;;;9.40;99.90;;;;;;5045178;28;20041;-67
2023/12/21 07:53:20;;;;;;;8.10;3.70;;;9.40;99.90;;;;;;5040377;28;20037;-67
2023/12/21 07:55:46;;;;;;;9.63;3.10;;;9.40;99.90;;;;;;5033114;28;20041;-68
2023/12/21 07:58:11;;;;;;;4.57;1.75;;;9.50;99.90;;;;;;5040384;28;20052;-67
2023/12/21 08:00:37;;;;;;;6.20;2.72;;;9.50;99.90;;;;;;5041257;28;20048;-68
2023/12/21 08:03:03;;;;;;;6.18;1.63;;;9.50;99.90;;;;;;5044653;28;20069;-68
2023/12/21 08:05:28;;;;;;;4.43;1.40;;;9.50;99.90;;;;;;5037213;28;20430;-68
2023/12/21 08:07:54;;;;;;;8.38;2.70;;;9.50;99.90;;;;;;5047548;28;20472;-68
2023/12/21 08:10:20;;;;;;;5.40;1.63;;;9.50;99.90;;;;;;5043910;28;20055;-67
2023/12/21 08:12:46;;;;;;;4.43;1.42;;;9.50;99.90;;;;;;5045338;28;20060;-68
2023/12/21 08:15:12;;;;;;;5.47;2.20;;;9.50;99.90;;;;;;5038057;28;20080;-67
2023/12/21 08:17:39;;;;;;;7.28;2.85;;;9.60;99.90;;;;;;5030656;28;20045;-68
2023/12/21 08:20:05;;;;;;;7.15;2.40;;;9.60;99.90;;;;;;5032103;28;20098;-68
2023/12/21 08:22:33;;;;;;;6.43;2.35;;;9.60;99.90;;;;;;5030752;28;20045;-68
2023/12/21 08:24:59;;;;;;;6.70;2.70;;;9.60;99.90;;;;;;5038650;28;20632;-68
2023/12/21 08:27:25;;;;;;;8.02;2.25;;;9.60;99.90;;;;;;5041878;28;20065;-69
2023/12/21 08:29:51;;;;;;;3.55;1.30;;;9.60;99.90;;;;;;5052499;28;20045;-71
2023/12/21 08:32:18;;;;;;;5.15;1.13;;;9.60;99.90;;;;;;5044299;28;20049;-69
2023/12/21 08:34:44;;;;;;;6.75;2.40;;;9.60;99.90;;;;;;5043489;28;20045;-70
2023/12/21 08:37:10;;;;;;;3.97;2.20;;;9.60;99.90;;;;;;5043385;28;20480;-71
2023/12/21 08:39:36;;;;;;;5.85;2.30;;;9.60;99.90;;;;;;5042842;28;20045;-70
2023/12/21 08:42:03;;;;;;;4.18;1.58;;;9.60;99.90;;;;;;5041992;28;20543;-71
2023/12/21 08:44:29;;;;;;;3.03;1.27;;;9.60;99.90;;;;;;5028932;28;20508;-72
2023/12/21 08:46:55;;;;;;;3.53;1.50;;;9.60;99.90;;;;;;5044859;28;20041;-70
2023/12/21 08:49:20;;;;;;;6.28;2.50;;;9.50;99.90;;;;;;5042724;28;20037;-70
2023/12/21 08:51:46;;;;;;;6.65;2.30;;;9.50;99.90;;;;;;5043260;28;20041;-70
2023/12/21 08:54:13;;;;;;;5.85;1.92;;;9.60;99.90;;;;;;5048216;28;20049;-71
2023/12/21 08:56:44;;;;;;;5.15;2.28;;;9.50;99.90;;;;;;5043610;28;20150;-71
2023/12/21 08:59:10;;;;;;;5.15;2.40;;;9.50;99.90;;;;;;5045051;28;20041;-71
2023/12/21 09:01:35;;;;;;;5.22;1.80;;;9.60;99.90;;;;;;5052808;28;20044;-70
2023/12/21 09:04:02;;;;;;;3.83;1.77;;;9.60;99.90;;;;;;5041942;28;20119;-71
2023/12/21 09:06:28;;;;;;;5.03;1.80;;;9.60;99.90;;;;;;5052444;28;20045;-71
2023/12/21 09:08:53;;;;;;;3.05;1.13;;;9.60;99.90;;;;;;5052105;28;20572;-70
2023/12/21 09:11:19;;;;;;;5.38;1.75;;;9.60;99.90;;;;;;5040119;28;20144;-69
2023/12/21 09:13:45;;;;;;;5.20;1.90;;;9.70;99.90;;;;;;5043268;28;20051;-68
2023/12/21 09:16:11;;;;;;;6.75;2.20;;;9.70;99.90;;;;;;5040846;28;20045;-69
2023/12/21 09:18:36;;;;;;;8.02;2.40;;;9.80;99.90;;;;;;5047975;28;20131;-70
2023/12/21 09:21:03;;;;;;;10.65;2.65;;;9.80;99.90;;;;;;5047432;28;20080;-70
2023/12/21 09:23:29;;;;;;;9.73;2.55;;;9.80;99.90;;;;;;5052731;28;20452;-70
2023/12/21 09:25:55;;;;;;;6.75;2.20;;;9.80;99.90;;;;;;5049045;28;20037;-71
2023/12/21 09:28:22;;;;;;;5.47;1.55;;;9.80;99.90;;;;;;5048275;28;20420;-71
2023/12/21 09:30:48;;;;;;;7.65;2.30;;;9.80;99.90;;;;;;5050333;28;20037;-71
2023/12/21 09:33:13;;;;;;;8.60;2.58;;;9.90;99.90;;;;;;5046988;28;20052;-72
2023/12/21 09:35:39;;;;;;;12.05;2.88;;;9.90;99.90;;;;;;5048171;28;20045;-73
2023/12/21 09:38:04;;;;;;;8.15;2.35;;;9.90;99.90;;;;;;5039871;28;20137;-72
2023/12/21 09:40:31;;;;;;;8.98;2.05;;;9.90;99.90;;;;;;5049535;28;20037;-71
2023/12/21 09:43:02;;;;;;;5.97;2.10;;;9.90;99.90;;;;;;5051175;28;20555;-71
2023/12/21 09:45:29;;;;;;;5.45;1.85;;;9.90;99.90;;;;;;5046925;28;20056;-73
2023/12/21 09:47:55;;;;;;;9.13;2.55;;;10.00;99.90;;;;;;5043529;28;20056;-71
2023/12/21 09:50:21;;;;;;;7.70;2.30;;;10.00;99.90;;;;;;5044568;28;20053;-71
2023/12/21 09:52:48;;;;;;;6.75;2.17;;;10.00;99.90;;;;;;5046282;28;20401;-71
2023/12/21 09:55:15;;;;;;;7.80;2.17;;;10.00;99.90;;;;;;5036590;28;20045;-68
2023/12/21 09:57:41;;;;;;;7.32;2.00;;;9.90;99.90;;;;;;5027589;28;20428;-69
2023/12/21 10:00:08;;;;;;;6.15;2.05;;;9.90;99.90;;;;;;5037577;28;20127;-69
2023/12/21 10:02:34;;;;;;;8.65;2.10;;;10.00;99.90;;;;;;5036548;28;20033;-70
2023/12/21 10:05:03;;;;;;;8.10;2.22;;;10.00;99.90;;;;;;5043619;28;20137;-69
2023/12/21 10:07:30;;;;;;;5.22;1.60;;;10.00;99.90;;;;;;5035555;28;20080;-69
2023/12/21 10:09:57;;;;;;;7.40;1.97;;;10.00;99.90;;;;;;5041206;28;20106;-69
2023/12/21 10:12:23;;;;;;;10.32;2.45;;;10.00;99.90;;;;;;5036308;28;20299;-69
2023/12/21 10:14:59;;;;;;;9.70;1.92;;;10.00;99.90;;;;;;5043467;28;20076;-69
2023/12/21 10:17:25;;;;;;;6.47;2.20;;;10.00;99.90;;;;;;5042952;28;20037;-70
2023/12/21 10:19:51;;;;;;;10.20;2.22;;;10.10;99.90;;;;;;5043616;28;20128;-71
2023/12/21 10:22:18;;;;;;;9.32;2.40;;;10.10;99.90;;;;;;5045422;28;20182;-70
2023/12/21 10:24:46;;;;;;;10.55;2.20;;;10.10;99.90;;;;;;5052881;28;20053;-71
2023/12/21 10:27:16;;;;;;;7.18;2.30;;;10.10;99.90;;;;;;5050235;28;20041;-71
2023/12/21 10:29:42;;;;;;;11.57;2.58;;;10.10;99.90;;;;;;5048297;28;20044;-70
2023/12/21 10:32:09;;;;;;;11.70;2.78;;;10.10;99.90;;;;;;5041398;28;20056;-71
2023/12/21 10:34:36;;;;;;;14.30;3.72;;;10.20;99.90;;;;;;5055863;28;20106;-71
2023/12/21 10:37:02;;;;;;;13.20;2.95;;;10.20;99.90;;;;;;5049865;28;20041;-71
2023/12/21 10:39:30;;;;;;;10.20;2.65;;;10.30;99.90;;;;;;5047675;28;20056;-69
2023/12/21 10:41:56;;;;;;;9.95;2.58;;;10.40;99.90;;;;;;5048552;28;20507;-70
2023/12/21 10:44:22;;;;;;;12.10;3.00;;;10.50;99.90;;;;;;5040776;28;20602;-70
2023/12/21 10:46:49;;;;;;;13.02;3.20;;;10.60;99.90;;;;;;5046590;28;20045;-70
2023/12/21 10:49:16;;;;;;;13.88;3.55;;;10.60;99.90;;;;;;5053187;28;20045;-69
2023/12/21 10:51:43;;;;;;;10.10;2.35;;;10.70;99.90;;;;;;5048042;28;20051;-69
2023/12/21 10:54:10;;;;;;;13.57;2.97;;;10.80;99.90;;;;;;5047037;28;20049;-70
2023/12/21 10:56:44;;;;;;;11.65;2.70;;;10.80;99.90;;;;;;5046602;28;20303;-68
2023/12/21 10:59:12;;;;;;;15.18;3.15;;;10.80;99.90;;;;;;5047194;28;20054;-68
2023/12/21 11:01:39;;;;;;;10.68;2.70;;;10.90;99.90;;;;;;5049704;28;20099;-71
2023/12/21 11:04:08;;;;;;;14.00;2.97;;;11.00;99.90;;;;;;5034969;28;20084;-68
2023/12/21 11:06:33;;;;;;;8.23;2.35;;;11.00;99.90;;;;;;5047691;28;20105;-69
2023/12/21 11:09:00;;;;;;;10.70;2.50;;;11.00;99.90;;;;;;5045592;28;20115;-67
2023/12/21 11:11:28;;;;;;;9.95;2.58;;;11.00;99.90;;;;;;5038250;28;20047;-68
2023/12/21 11:13:55;;;;;;;9.13;2.42;;;11.00;99.90;;;;;;5041772;28;20509;-70
2023/12/21 11:16:33;;;;;;;10.45;2.50;;;11.10;99.90;;;;;;5045695;28;20138;-71
2023/12/21 11:19:02;;;;;;;9.73;2.60;;;11.10;99.90;;;;;;5037323;28;20060;-69
2023/12/21 11:21:29;;;;;;;12.73;2.58;;;11.10;99.90;;;;;;5041320;28;20036;-69
2023/12/21 11:23:56;;;;;;;11.40;2.72;;;11.10;99.90;;;;;;5042329;28;20374;-71
2023/12/21 11:26:27;;;;;;;12.50;2.72;;;11.10;99.90;;;;;;5044489;28;20049;-70
2023/12/21 11:29:03;;;;;;;13.18;2.40;;;11.20;99.90;;;;;;5040041;28;20064;-72
2023/12/21 11:31:37;;;;;;;14.63;3.53;;;11.30;99.90;;;;;;5042031;28;20068;-71
2023/12/21 11:34:13;;;;;;;13.55;2.72;;;11.40;99.90;;;;;;5043964;28;20061;-71
2023/12/21 11:36:39;;;;;;;10.68;2.40;;;11.30;99.90;;;;;;5030238;28;20500;-68
2023/12/21 11:39:28;;;;;;;12.07;2.90;;;11.20;99.90;;;;;;5035647;28;20080;-67
2023/12/21 11:41:58;;;;;;;11.45;2.60;;;11.30;99.90;;;;;;5029929;28;20717;-67
2023/12/21 11:44:33;;;;;;;13.95;2.75;;;11.30;99.90;;;;;;5037520;28;20048;-68
2023/12/21 11:47:01;;;;;;;12.18;2.80;;;11.30;99.90;;;;;;5034567;28;20087;-74
2023/12/21 11:49:27;;;;;;;11.15;2.78;;;11.20;99.90;;;;;;5037326;28;20041;-70
2023/12/21 11:51:53;;;;;;;14.05;3.00;;;11.20;99.90;;;;;;5046957;28;20503;-69
2023/12/21 11:54:23;;;;;;;11.50;3.03;;;11.20;99.90;;;;;;5035193;28;20045;-70
2023/12/21 11:57:10;;;;;;;16.70;3.60;;;11.10;99.90;;;;;;5040517;28;20064;-70
2023/12/21 11:59:36;;;;;;;13.63;3.22;;;10.90;99.90;;;;;;5036603;28;20045;-69
2023/12/21 12:02:06;;;;;;;15.13;3.40;;;10.80;99.90;;;;;;5044070;28;20053;-70
2023/12/21 12:04:32;;;;;;;17.25;3.42;;;10.90;99.90;;;;;;5046876;28;20102;-69
2023/12/21 12:06:58;;;;;;;16.02;3.78;;;10.90;99.90;;;;;;5046701;28;20044;-69
2023/12/21 12:09:23;;;;;;;19.33;4.28;;;11.00;99.90;;;;;;5046533;28;20400;-70
2023/12/21 12:11:51;;;;;;;20.33;4.55;;;11.10;99.90;;;;;;5045596;28;20071;-69
2023/12/21 12:14:19;;;;;;;;;;;11.20;99.90;;;;;;5043324;28;20124;-69
2023/12/21 12:16:46;;;;;;;18.17;4.25;;;11.20;99.90;;;;;;5044519;28;19928;-69
2023/12/21 12:19:12;;;;;;;18.20;4.40;;;11.20;99.90;;;;;;5045970;28;20471;-69
2023/12/21 12:21:38;;;;;;;19.80;3.78;;;11.30;99.90;;;;;;5026931;28;20033;-69
2023/12/21 12:24:05;;;;;;;16.13;3.58;;;11.30;99.90;;;;;;5031051;28;20127;-68
2023/12/21 12:26:31;;;;;;;19.90;4.20;;;11.30;99.90;;;;;;5043441;28;20048;-68
2023/12/21 12:28:57;;;;;;;13.85;3.45;;;11.30;99.90;;;;;;5045108;28;20063;-69
2023/12/21 12:31:23;;;;;;;16.80;3.40;;;11.40;99.90;;;;;;5045719;28;20069;-68
2023/12/21 12:33:48;;;;;;;14.98;3.70;;;11.40;99.90;;;;;;5042445;28;20068;-69
2023/12/21 12:36:19;;;;;;;16.92;4.28;;;11.40;99.90;;;;;;5046292;28;20237;-68
2023/12/21 12:38:45;;;;;;;15.07;3.80;;;11.50;99.90;;;;;;5024016;28;20101;-69
2023/12/21 12:41:21;;;;;;;15.43;3.60;;;11.50;99.90;;;;;;5037785;28;20123;-69
2023/12/21 12:43:47;;;;;;;14.18;3.20;;;11.50;99.90;;;;;;5029517;28;20053;-69